Dulles, VA (20189)

4:45 PM EST on December 28, 2014 (GMT -0500)
Countryside | Change Station
CLOSE
Current Station
Personal Weather Station
Location: Sterling, VA
Elevation: 292 ft
Nearby Weather Stations

Elev 292 ft 39.04 °N, 77.42 °W | Updated 4 seconds ago

Rain
Rain
51.8 °F
Feels Like 51.8 °F
N
0.0
Wind Variable Wind from NNE
Gusts 0.0 mph

Today
High -- | Low -- °F
--% Chance of Precip.
Yesterday
High -- | Low -- °F
Precip. -- in
7:27 AM 4:54 PM
First Quarter, 51% visible
Pressure 29.99 in
Visibility 10.0 miles
Clouds Few 4800 ft
Scattered Clouds 7500 ft
Overcast 10000 ft
Dew Point 49 °F
Humidity 89%
Rainfall 0.02 in
Snow Depth Not available.
UV 0 out of 12
Pollen .10 out of 12
Air Quality Not available.
Flu Activity Not available.
METAR KIAD 282052Z 00000KT 10SM -RA FEW048 SCT075 OVC100 11/08 A2998 RMK AO2 SLP153 P0000 60000 T01110083 53012

More Conditions Fewer Conditions

Pressure 29.99 in
Visibility 10.0 miles
Clouds Few 4800 ft
Scattered Clouds 7500 ft
Overcast 10000 ft
Dew Point 49 °F
Humidity 89%
Rainfall 0.02 in
Snow Depth Not available.
UV 0 out of 12
Pollen .10 out of 12
Air Quality Not available.
Flu Activity Not available.
METAR KIAD 282052Z 00000KT 10SM -RA FEW048 SCT075 OVC100 11/08 A2998 RMK AO2 SLP153 P0000 60000 T01110083 53012

More Conditions Fewer Conditions

10-Day Weather Forecast

Almanac

Astronomy

Dec. 28, 2014 Rise Set
Actual Time
Civil Twilight
Nautical Twilight
Astronomical Twilight
Moon
Length of Visible Light
Length of Day
Tomorrow will be .
, % of the Moon is Illuminated

Today's Extremes

State Highs State Lows

Community

WunderPhotos

Upload Photos

1,781,436 photos uploaded!

WunderBlogs® & News

Nearby

Air Quality

  Air Quality AQ Index Pollutant
Not available.

Snow Depth

Station Depth Elevation

Earthquake Activity

City Distance Mag. Time & Date
Minimum magnitude displayed is 2.5.

Coastal Water Temperatures

Place Temperature

Nearby Weather Stations